Terminal Aerodrome Forecast
Issued by NWS

Home | Current Version | Previous Version | Text Only | Print | Product List | Glossary On
Versions: 1 2 3 4 5 6 7 8 9 10 11 12 13 14 15 16 17 18 19 20
000
FTUS45 KTFX 252300
TAFHVR
TAF
KHVR 252320Z 2600/2624 26024G38KT P6SM SCT100 SCT180
     FM260200 26017G24KT P6SM FEW150
     FM260600 28010KT P6SM FEW150
     FM261900 30012G25KT P6SM SKC=

USA.gov is the U.S. government's official web portal to all federal, state and local government web resources and services.